This is the latest recevied weather packets stored in our database for station/object E22ZMG-2. If no packets are shown the sender has not sent any weather packets the latest 10 day(s).
| Time | Temp. | Humidity | Pressure | Rain* | Wind** | Luminosity | Snow |
|---|---|---|---|---|---|---|---|
| 1778145507 | 29.44° C | 62% | 923 hPa | - | - | 0 W/m² | - |
| 1778144882 | 28.89° C | 62% | 924 hPa | - | - | 0 W/m² | - |
| 1778144258 | 28.89° C | 62% | 924 hPa | - | - | 0 W/m² | - |
| 1778143634 | 28.33° C | 63% | 925 hPa | - | - | 0 W/m² | - |
| 1778142112 | 26.67° C | 66% | 926 hPa | - | - | 0 W/m² | - |
| 1778141488 | 30° C | 62% | 925 hPa | - | - | 0 W/m² | - |
| 1778140864 | 32.78° C | 57% | 924 hPa | - | - | 0 W/m² | - |
| 1778140240 | 33.89° C | 51% | 923 hPa | - | - | 0 W/m² | - |
| 1778139616 | 33.89° C | 51% | 923 hPa | - | - | 0 W/m² | - |
| 1778138991 | 34.44° C | 50% | 923 hPa | - | - | 0 W/m² | - |
| 1778138366 | 33.89° C | 51% | 923 hPa | - | - | 0 W/m² | - |
| 1778137742 | 33.89° C | 53% | 924 hPa | - | - | 0 W/m² | - |
| 1778137118 | 33.33° C | 52% | 924 hPa | - | - | 0 W/m² | - |
| 1778136493 | 33.89° C | 51% | 924 hPa | - | - | 0 W/m² | - |
| 1778136070 | 33.33° C | 51% | 924 hPa | - | - | 0 W/m² | - |
| 1778135446 | 33.89° C | 50% | 924 hPa | - | - | 0 W/m² | - |
| 1778134821 | 33.89° C | 50% | 924 hPa | - | - | 0 W/m² | - |
| 1778134196 | 34.44° C | 49% | 925 hPa | - | - | 0 W/m² | - |
| 1778133571 | 33.89° C | 49% | 925 hPa | - | - | 0 W/m² | - |
| 1778132945 | 33.89° C | 50% | 925 hPa | - | - | 0 W/m² | - |
| 1778132321 | 33.89° C | 50% | 925 hPa | - | - | 0 W/m² | - |
| 1778131696 | 33.33° C | 50% | 926 hPa | - | - | 0 W/m² | - |
| 1778131071 | 33.33° C | 52% | 926 hPa | - | - | 0 W/m² | - |
| 1778130447 | 33.33° C | 52% | 926 hPa | - | - | 0 W/m² | - |
| 1778129822 | 33.33° C | 51% | 926 hPa | - | - | 0 W/m² | - |
* Rain since midnight (hover to see other rain measurements)
** Current wind speed in m/s (hover to see current wind gust speed)